sensor_id;sensor_type;location;lat;lon;timestamp;P1;durP1;ratioP1;P2;durP2;ratioP2
75584;SDS011;64162;53.508;10.476;2023-03-01T00:01:00;37.75;;;35.85;;
75584;SDS011;64162;53.508;10.476;2023-03-01T00:03:32;43.35;;;40.83;;
75584;SDS011;64162;53.508;10.476;2023-03-01T00:05:59;43.25;;;40.75;;
75584;SDS011;64162;53.508;10.476;2023-03-01T00:08:27;43.22;;;40.60;;
75584;SDS011;64162;53.508;10.476;2023-03-01T00:11:01;35.30;;;33.35;;
75584;SDS011;64162;53.508;10.476;2023-03-01T00:13:31;39.67;;;37.63;;
75584;SDS011;64162;53.508;10.476;2023-03-01T00:15:58;39.80;;;37.72;;
75584;SDS011;64162;53.508;10.476;2023-03-01T00:18:25;40.35;;;38.13;;
75584;SDS011;64162;53.508;10.476;2023-03-01T00:20:52;39.80;;;37.45;;
75584;SDS011;64162;53.508;10.476;2023-03-01T00:23:20;47.53;;;44.78;;
75584;SDS011;64162;53.508;10.476;2023-03-01T00:25:47;39.40;;;37.05;;
75584;SDS011;64162;53.508;10.476;2023-03-01T00:28:14;43.88;;;41.22;;
75584;SDS011;64162;53.508;10.476;2023-03-01T00:30:42;43.42;;;41.00;;
75584;SDS011;64162;53.508;10.476;2023-03-01T00:33:08;50.00;;;46.97;;
75584;SDS011;64162;53.508;10.476;2023-03-01T00:35:35;42.22;;;39.67;;
75584;SDS011;64162;53.508;10.476;2023-03-01T00:38:02;40.63;;;38.25;;
75584;SDS011;64162;53.508;10.476;2023-03-01T00:40:31;40.25;;;38.15;;
75584;SDS011;64162;53.508;10.476;2023-03-01T00:42:59;47.85;;;44.90;;
75584;SDS011;64162;53.508;10.476;2023-03-01T00:45:26;52.17;;;49.03;;
75584;SDS011;64162;53.508;10.476;2023-03-01T00:47:53;40.08;;;37.80;;
75584;SDS011;64162;53.508;10.476;2023-03-01T00:50:20;40.47;;;38.38;;
75584;SDS011;64162;53.508;10.476;2023-03-01T00:52:46;50.85;;;48.00;;
75584;SDS011;64162;53.508;10.476;2023-03-01T00:55:13;46.10;;;43.33;;
75584;SDS011;64162;53.508;10.476;2023-03-01T00:57:39;45.28;;;42.58;;
75584;SDS011;64162;53.508;10.476;2023-03-01T01:00:07;51.65;;;48.67;;
75584;SDS011;64162;53.508;10.476;2023-03-01T01:05:02;44.50;;;41.55;;
75584;SDS011;64162;53.508;10.476;2023-03-01T01:07:29;44.17;;;41.53;;
75584;SDS011;64162;53.508;10.476;2023-03-01T01:09:55;49.67;;;46.80;;
75584;SDS011;64162;53.508;10.476;2023-03-01T01:12:22;51.92;;;48.88;;
75584;SDS011;64162;53.508;10.476;2023-03-01T01:14:48;54.72;;;51.03;;
75584;SDS011;64162;53.508;10.476;2023-03-01T01:17:15;59.95;;;56.83;;
75584;SDS011;64162;53.508;10.476;2023-03-01T01:19:44;46.47;;;43.42;;
75584;SDS011;64162;53.508;10.476;2023-03-01T01:22:10;50.20;;;47.33;;
75584;SDS011;64162;53.508;10.476;2023-03-01T01:24:37;54.28;;;51.22;;
75584;SDS011;64162;53.508;10.476;2023-03-01T01:27:03;47.92;;;45.08;;
75584;SDS011;64162;53.508;10.476;2023-03-01T01:29:30;37.42;;;35.03;;
75584;SDS011;64162;53.508;10.476;2023-03-01T01:31:56;48.88;;;46.40;;
75584;SDS011;64162;53.508;10.476;2023-03-01T01:34:23;49.88;;;46.83;;
75584;SDS011;64162;53.508;10.476;2023-03-01T01:36:50;42.58;;;40.00;;
75584;SDS011;64162;53.508;10.476;2023-03-01T01:39:20;42.47;;;40.25;;
75584;SDS011;64162;53.508;10.476;2023-03-01T01:41:48;47.42;;;44.75;;
75584;SDS011;64162;53.508;10.476;2023-03-01T01:44:20;52.38;;;49.47;;
75584;SDS011;64162;53.508;10.476;2023-03-01T01:46:59;45.30;;;42.20;;
75584;SDS011;64162;53.508;10.476;2023-03-01T01:52:16;47.22;;;44.75;;
75584;SDS011;64162;53.508;10.476;2023-03-01T01:54:50;55.60;;;52.92;;
75584;SDS011;64162;53.508;10.476;2023-03-01T01:57:22;52.85;;;49.85;;
75584;SDS011;64162;53.508;10.476;2023-03-01T02:00:03;53.25;;;50.00;;
75584;SDS011;64162;53.508;10.476;2023-03-01T02:02:38;53.30;;;50.22;;
75584;SDS011;64162;53.508;10.476;2023-03-01T02:07:51;51.75;;;49.00;;
75584;SDS011;64162;53.508;10.476;2023-03-01T02:10:19;59.17;;;55.55;;
75584;SDS011;64162;53.508;10.476;2023-03-01T02:12:47;53.60;;;50.33;;
75584;SDS011;64162;53.508;10.476;2023-03-01T02:15:13;74.15;;;70.15;;
75584;SDS011;64162;53.508;10.476;2023-03-01T02:17:40;76.82;;;72.82;;
75584;SDS011;64162;53.508;10.476;2023-03-01T02:20:14;54.88;;;51.80;;
75584;SDS011;64162;53.508;10.476;2023-03-01T02:22:49;46.88;;;43.95;;
75584;SDS011;64162;53.508;10.476;2023-03-01T02:27:49;59.90;;;56.70;;
75584;SDS011;64162;53.508;10.476;2023-03-01T02:30:30;46.88;;;44.28;;
75584;SDS011;64162;53.508;10.476;2023-03-01T02:35:32;49.47;;;46.78;;
75584;SDS011;64162;53.508;10.476;2023-03-01T02:38:03;52.00;;;49.17;;
75584;SDS011;64162;53.508;10.476;2023-03-01T02:40:34;48.17;;;45.75;;
75584;SDS011;64162;53.508;10.476;2023-03-01T02:43:04;47.35;;;44.28;;
75584;SDS011;64162;53.508;10.476;2023-03-01T02:45:34;50.42;;;47.45;;
75584;SDS011;64162;53.508;10.476;2023-03-01T02:48:00;57.42;;;54.03;;
75584;SDS011;64162;53.508;10.476;2023-03-01T02:55:47;48.15;;;45.58;;
75584;SDS011;64162;53.508;10.476;2023-03-01T02:58:15;51.05;;;48.20;;
75584;SDS011;64162;53.508;10.476;2023-03-01T03:00:42;51.40;;;48.42;;
75584;SDS011;64162;53.508;10.476;2023-03-01T03:03:15;52.80;;;50.10;;
75584;SDS011;64162;53.508;10.476;2023-03-01T03:05:44;37.67;;;35.35;;
75584;SDS011;64162;53.508;10.476;2023-03-01T03:08:10;40.22;;;37.97;;
75584;SDS011;64162;53.508;10.476;2023-03-01T03:10:39;50.53;;;47.65;;
75584;SDS011;64162;53.508;10.476;2023-03-01T03:15:36;35.92;;;33.70;;
75584;SDS011;64162;53.508;10.476;2023-03-01T03:18:06;53.78;;;50.65;;
75584;SDS011;64162;53.508;10.476;2023-03-01T03:20:35;44.83;;;42.22;;
75584;SDS011;64162;53.508;10.476;2023-03-01T03:23:02;46.20;;;43.42;;
75584;SDS011;64162;53.508;10.476;2023-03-01T03:25:29;48.65;;;45.80;;
75584;SDS011;64162;53.508;10.476;2023-03-01T03:27:56;43.42;;;40.40;;
75584;SDS011;64162;53.508;10.476;2023-03-01T03:30:25;46.90;;;43.55;;
75584;SDS011;64162;53.508;10.476;2023-03-01T03:32:56;44.65;;;41.30;;
75584;SDS011;64162;53.508;10.476;2023-03-01T03:35:27;52.05;;;47.83;;
75584;SDS011;64162;53.508;10.476;2023-03-01T03:37:59;62.85;;;58.72;;
75584;SDS011;64162;53.508;10.476;2023-03-01T03:40:31;68.47;;;63.42;;
75584;SDS011;64162;53.508;10.476;2023-03-01T03:43:10;56.05;;;51.50;;
75584;SDS011;64162;53.508;10.476;2023-03-01T03:45:39;53.97;;;49.25;;
75584;SDS011;64162;53.508;10.476;2023-03-01T03:48:06;58.13;;;53.03;;
75584;SDS011;64162;53.508;10.476;2023-03-01T03:50:34;61.35;;;56.35;;
75584;SDS011;64162;53.508;10.476;2023-03-01T03:53:02;50.38;;;45.90;;
75584;SDS011;64162;53.508;10.476;2023-03-01T03:55:30;57.50;;;52.80;;
75584;SDS011;64162;53.508;10.476;2023-03-01T03:57:58;54.47;;;50.53;;
75584;SDS011;64162;53.508;10.476;2023-03-01T04:00:28;56.03;;;52.15;;
75584;SDS011;64162;53.508;10.476;2023-03-01T04:02:55;48.13;;;44.17;;
75584;SDS011;64162;53.508;10.476;2023-03-01T04:05:24;54.90;;;50.67;;
75584;SDS011;64162;53.508;10.476;2023-03-01T04:07:51;64.43;;;59.97;;
75584;SDS011;64162;53.508;10.476;2023-03-01T04:10:27;52.88;;;49.35;;
75584;SDS011;64162;53.508;10.476;2023-03-01T04:12:58;47.83;;;44.67;;
75584;SDS011;64162;53.508;10.476;2023-03-01T04:15:26;47.15;;;43.88;;
75584;SDS011;64162;53.508;10.476;2023-03-01T04:17:53;39.22;;;36.40;;
75584;SDS011;64162;53.508;10.476;2023-03-01T04:20:23;47.50;;;44.67;;
75584;SDS011;64162;53.508;10.476;2023-03-01T04:23:03;45.28;;;42.72;;
75584;SDS011;64162;53.508;10.476;2023-03-01T04:25:41;44.13;;;41.30;;
75584;SDS011;64162;53.508;10.476;2023-03-01T04:28:22;43.95;;;41.17;;
75584;SDS011;64162;53.508;10.476;2023-03-01T04:30:54;42.40;;;39.92;;
75584;SDS011;64162;53.508;10.476;2023-03-01T04:33:23;47.25;;;44.47;;
75584;SDS011;64162;53.508;10.476;2023-03-01T04:35:51;45.83;;;43.38;;
75584;SDS011;64162;53.508;10.476;2023-03-01T04:38:18;43.65;;;41.10;;
75584;SDS011;64162;53.508;10.476;2023-03-01T04:40:45;46.05;;;43.22;;
75584;SDS011;64162;53.508;10.476;2023-03-01T04:43:12;45.53;;;43.13;;
75584;SDS011;64162;53.508;10.476;2023-03-01T04:45:42;46.22;;;43.85;;
75584;SDS011;64162;53.508;10.476;2023-03-01T04:48:09;48.13;;;45.55;;
75584;SDS011;64162;53.508;10.476;2023-03-01T04:50:36;48.83;;;46.35;;
75584;SDS011;64162;53.508;10.476;2023-03-01T04:53:02;45.25;;;43.03;;
75584;SDS011;64162;53.508;10.476;2023-03-01T04:55:29;50.60;;;47.97;;
75584;SDS011;64162;53.508;10.476;2023-03-01T04:57:56;42.95;;;40.45;;
75584;SDS011;64162;53.508;10.476;2023-03-01T05:00:22;43.15;;;40.63;;
75584;SDS011;64162;53.508;10.476;2023-03-01T05:02:50;42.60;;;40.33;;
75584;SDS011;64162;53.508;10.476;2023-03-01T05:05:27;45.20;;;42.85;;
75584;SDS011;64162;53.508;10.476;2023-03-01T05:07:57;46.25;;;43.80;;
75584;SDS011;64162;53.508;10.476;2023-03-01T05:10:25;46.33;;;44.03;;
75584;SDS011;64162;53.508;10.476;2023-03-01T05:12:52;48.90;;;46.47;;
75584;SDS011;64162;53.508;10.476;2023-03-01T05:15:19;47.53;;;45.22;;
75584;SDS011;64162;53.508;10.476;2023-03-01T05:20:15;68.15;;;65.05;;
75584;SDS011;64162;53.508;10.476;2023-03-01T05:22:41;72.78;;;69.38;;
75584;SDS011;64162;53.508;10.476;2023-03-01T05:25:08;54.10;;;51.35;;
75584;SDS011;64162;53.508;10.476;2023-03-01T05:27:35;56.00;;;53.17;;
75584;SDS011;64162;53.508;10.476;2023-03-01T05:30:02;51.25;;;48.75;;
75584;SDS011;64162;53.508;10.476;2023-03-01T05:32:49;47.97;;;45.55;;
75584;SDS011;64162;53.508;10.476;2023-03-01T05:35:22;50.97;;;48.55;;
75584;SDS011;64162;53.508;10.476;2023-03-01T05:37:49;42.80;;;40.63;;
75584;SDS011;64162;53.508;10.476;2023-03-01T05:40:17;41.60;;;39.42;;
75584;SDS011;64162;53.508;10.476;2023-03-01T05:42:47;51.38;;;48.90;;
75584;SDS011;64162;53.508;10.476;2023-03-01T05:45:15;44.92;;;42.63;;
75584;SDS011;64162;53.508;10.476;2023-03-01T05:47:43;42.80;;;40.78;;
75584;SDS011;64162;53.508;10.476;2023-03-01T05:52:50;37.72;;;35.75;;
75584;SDS011;64162;53.508;10.476;2023-03-01T05:55:27;38.55;;;36.55;;
75584;SDS011;64162;53.508;10.476;2023-03-01T05:57:55;50.08;;;47.45;;
75584;SDS011;64162;53.508;10.476;2023-03-01T06:00:25;64.57;;;61.42;;
75584;SDS011;64162;53.508;10.476;2023-03-01T06:02:53;60.85;;;57.80;;
75584;SDS011;64162;53.508;10.476;2023-03-01T06:05:20;60.97;;;58.10;;
75584;SDS011;64162;53.508;10.476;2023-03-01T06:07:47;38.88;;;36.75;;
75584;SDS011;64162;53.508;10.476;2023-03-01T06:10:14;39.40;;;37.15;;
75584;SDS011;64162;53.508;10.476;2023-03-01T06:12:41;46.83;;;44.42;;
75584;SDS011;64162;53.508;10.476;2023-03-01T06:15:10;48.70;;;46.35;;
75584;SDS011;64162;53.508;10.476;2023-03-01T06:17:39;49.25;;;46.83;;
75584;SDS011;64162;53.508;10.476;2023-03-01T06:20:10;39.72;;;37.53;;
75584;SDS011;64162;53.508;10.476;2023-03-01T06:22:48;41.45;;;39.47;;
75584;SDS011;64162;53.508;10.476;2023-03-01T06:25:16;46.20;;;43.80;;
75584;SDS011;64162;53.508;10.476;2023-03-01T06:27:44;65.20;;;62.13;;
75584;SDS011;64162;53.508;10.476;2023-03-01T06:30:12;40.33;;;38.38;;
75584;SDS011;64162;53.508;10.476;2023-03-01T06:32:40;34.47;;;32.35;;
75584;SDS011;64162;53.508;10.476;2023-03-01T06:35:11;41.13;;;39.00;;
75584;SDS011;64162;53.508;10.476;2023-03-01T06:37:38;26.25;;;24.83;;
75584;SDS011;64162;53.508;10.476;2023-03-01T06:40:06;25.92;;;24.27;;
75584;SDS011;64162;53.508;10.476;2023-03-01T06:42:35;28.15;;;26.48;;
75584;SDS011;64162;53.508;10.476;2023-03-01T06:45:02;28.08;;;26.38;;
75584;SDS011;64162;53.508;10.476;2023-03-01T06:47:29;29.27;;;27.58;;
75584;SDS011;64162;53.508;10.476;2023-03-01T06:49:56;28.65;;;27.05;;
75584;SDS011;64162;53.508;10.476;2023-03-01T06:52:22;27.85;;;26.38;;
75584;SDS011;64162;53.508;10.476;2023-03-01T06:54:49;32.60;;;30.85;;
75584;SDS011;64162;53.508;10.476;2023-03-01T06:57:15;28.60;;;26.80;;
75584;SDS011;64162;53.508;10.476;2023-03-01T06:59:42;27.15;;;25.33;;
75584;SDS011;64162;53.508;10.476;2023-03-01T07:02:11;34.28;;;32.38;;
75584;SDS011;64162;53.508;10.476;2023-03-01T07:04:40;31.65;;;29.77;;
75584;SDS011;64162;53.508;10.476;2023-03-01T07:07:08;29.83;;;28.23;;
75584;SDS011;64162;53.508;10.476;2023-03-01T07:09:37;31.90;;;29.98;;
75584;SDS011;64162;53.508;10.476;2023-03-01T07:12:04;35.35;;;32.97;;
75584;SDS011;64162;53.508;10.476;2023-03-01T07:14:31;30.50;;;28.50;;
75584;SDS011;64162;53.508;10.476;2023-03-01T07:16:58;34.63;;;32.13;;
75584;SDS011;64162;53.508;10.476;2023-03-01T07:19:24;38.80;;;36.60;;
75584;SDS011;64162;53.508;10.476;2023-03-01T07:21:51;29.77;;;27.63;;
75584;SDS011;64162;53.508;10.476;2023-03-01T07:24:17;30.00;;;28.30;;
75584;SDS011;64162;53.508;10.476;2023-03-01T07:26:47;30.40;;;28.40;;
75584;SDS011;64162;53.508;10.476;2023-03-01T07:29:15;29.92;;;28.17;;
75584;SDS011;64162;53.508;10.476;2023-03-01T07:31:42;31.20;;;29.20;;
75584;SDS011;64162;53.508;10.476;2023-03-01T07:34:08;30.05;;;28.17;;
75584;SDS011;64162;53.508;10.476;2023-03-01T07:36:37;29.08;;;27.23;;
75584;SDS011;64162;53.508;10.476;2023-03-01T07:39:03;30.80;;;29.05;;
75584;SDS011;64162;53.508;10.476;2023-03-01T07:41:30;34.50;;;32.35;;
75584;SDS011;64162;53.508;10.476;2023-03-01T07:43:56;31.45;;;29.52;;
75584;SDS011;64162;53.508;10.476;2023-03-01T07:46:23;30.75;;;28.95;;
75584;SDS011;64162;53.508;10.476;2023-03-01T07:48:49;32.45;;;30.45;;
75584;SDS011;64162;53.508;10.476;2023-03-01T07:51:16;33.30;;;31.40;;
75584;SDS011;64162;53.508;10.476;2023-03-01T07:53:45;30.52;;;28.83;;
75584;SDS011;64162;53.508;10.476;2023-03-01T07:56:13;37.50;;;35.22;;
75584;SDS011;64162;53.508;10.476;2023-03-01T08:01:10;40.83;;;38.45;;
75584;SDS011;64162;53.508;10.476;2023-03-01T08:03:39;37.60;;;35.10;;
75584;SDS011;64162;53.508;10.476;2023-03-01T08:06:07;36.85;;;34.75;;
75584;SDS011;64162;53.508;10.476;2023-03-01T08:08:35;33.95;;;31.75;;
75584;SDS011;64162;53.508;10.476;2023-03-01T08:11:03;38.90;;;36.17;;
75584;SDS011;64162;53.508;10.476;2023-03-01T08:13:31;35.28;;;33.25;;
75584;SDS011;64162;53.508;10.476;2023-03-01T08:16:11;38.60;;;36.03;;
75584;SDS011;64162;53.508;10.476;2023-03-01T08:18:40;52.85;;;49.83;;
75584;SDS011;64162;53.508;10.476;2023-03-01T08:21:09;32.10;;;30.10;;
75584;SDS011;64162;53.508;10.476;2023-03-01T08:23:40;38.58;;;35.58;;
75584;SDS011;64162;53.508;10.476;2023-03-01T08:26:08;38.38;;;36.10;;
75584;SDS011;64162;53.508;10.476;2023-03-01T08:28:37;38.42;;;36.10;;
75584;SDS011;64162;53.508;10.476;2023-03-01T08:33:56;33.47;;;31.17;;
75584;SDS011;64162;53.508;10.476;2023-03-01T08:36:25;39.05;;;36.35;;
75584;SDS011;64162;53.508;10.476;2023-03-01T08:38:53;34.30;;;32.00;;
75584;SDS011;64162;53.508;10.476;2023-03-01T08:41:20;36.15;;;33.67;;
75584;SDS011;64162;53.508;10.476;2023-03-01T08:43:47;32.13;;;30.17;;
75584;SDS011;64162;53.508;10.476;2023-03-01T08:46:13;34.58;;;32.30;;
75584;SDS011;64162;53.508;10.476;2023-03-01T08:48:40;33.28;;;31.33;;
75584;SDS011;64162;53.508;10.476;2023-03-01T08:51:10;36.80;;;34.25;;
75584;SDS011;64162;53.508;10.476;2023-03-01T08:53:39;41.00;;;38.58;;
75584;SDS011;64162;53.508;10.476;2023-03-01T08:56:06;38.97;;;36.67;;
75584;SDS011;64162;53.508;10.476;2023-03-01T08:58:33;35.13;;;33.10;;
75584;SDS011;64162;53.508;10.476;2023-03-01T09:01:00;37.60;;;35.05;;
75584;SDS011;64162;53.508;10.476;2023-03-01T09:03:27;33.53;;;31.65;;
75584;SDS011;64162;53.508;10.476;2023-03-01T09:05:59;33.63;;;31.73;;
75584;SDS011;64162;53.508;10.476;2023-03-01T09:08:27;53.33;;;50.50;;
75584;SDS011;64162;53.508;10.476;2023-03-01T09:10:54;37.47;;;35.35;;
75584;SDS011;64162;53.508;10.476;2023-03-01T09:13:21;42.35;;;40.22;;
75584;SDS011;64162;53.508;10.476;2023-03-01T09:15:50;32.30;;;30.17;;
75584;SDS011;64162;53.508;10.476;2023-03-01T09:18:17;31.00;;;29.10;;
75584;SDS011;64162;53.508;10.476;2023-03-01T09:20:44;32.05;;;30.02;;
75584;SDS011;64162;53.508;10.476;2023-03-01T09:23:10;28.83;;;26.83;;
75584;SDS011;64162;53.508;10.476;2023-03-01T09:25:37;28.42;;;26.45;;
75584;SDS011;64162;53.508;10.476;2023-03-01T09:28:03;25.00;;;23.25;;
75584;SDS011;64162;53.508;10.476;2023-03-01T09:30:30;28.10;;;25.98;;
75584;SDS011;64162;53.508;10.476;2023-03-01T09:32:57;31.67;;;29.42;;
75584;SDS011;64162;53.508;10.476;2023-03-01T09:35:23;32.15;;;29.77;;
75584;SDS011;64162;53.508;10.476;2023-03-01T09:37:50;28.92;;;26.83;;
75584;SDS011;64162;53.508;10.476;2023-03-01T09:40:27;27.13;;;25.10;;
75584;SDS011;64162;53.508;10.476;2023-03-01T09:42:58;43.38;;;40.78;;
75584;SDS011;64162;53.508;10.476;2023-03-01T09:45:34;29.10;;;26.70;;
75584;SDS011;64162;53.508;10.476;2023-03-01T09:48:05;32.65;;;30.40;;
75584;SDS011;64162;53.508;10.476;2023-03-01T09:50:39;34.42;;;32.13;;
75584;SDS011;64162;53.508;10.476;2023-03-01T09:53:13;31.80;;;29.75;;
75584;SDS011;64162;53.508;10.476;2023-03-01T09:55:44;60.67;;;57.30;;
75584;SDS011;64162;53.508;10.476;2023-03-01T10:01:10;107.28;;;102.30;;
75584;SDS011;64162;53.508;10.476;2023-03-01T10:03:55;75.82;;;71.97;;
75584;SDS011;64162;53.508;10.476;2023-03-01T10:06:31;81.80;;;77.38;;
75584;SDS011;64162;53.508;10.476;2023-03-01T10:09:02;114.30;;;108.97;;
75584;SDS011;64162;53.508;10.476;2023-03-01T10:11:35;73.35;;;69.47;;
75584;SDS011;64162;53.508;10.476;2023-03-01T10:14:07;74.78;;;70.78;;
75584;SDS011;64162;53.508;10.476;2023-03-01T10:19:38;78.03;;;74.00;;
75584;SDS011;64162;53.508;10.476;2023-03-01T10:22:11;69.97;;;66.30;;
75584;SDS011;64162;53.508;10.476;2023-03-01T10:24:47;79.13;;;75.13;;
75584;SDS011;64162;53.508;10.476;2023-03-01T10:29:46;101.63;;;96.78;;
75584;SDS011;64162;53.508;10.476;2023-03-01T10:32:19;134.90;;;128.82;;
75584;SDS011;64162;53.508;10.476;2023-03-01T10:34:50;109.78;;;104.72;;
75584;SDS011;64162;53.508;10.476;2023-03-01T10:37:17;87.72;;;83.18;;
75584;SDS011;64162;53.508;10.476;2023-03-01T10:40:07;96.88;;;92.45;;
75584;SDS011;64162;53.508;10.476;2023-03-01T10:42:38;72.57;;;68.57;;
75584;SDS011;64162;53.508;10.476;2023-03-01T10:50:34;126.75;;;120.75;;
75584;SDS011;64162;53.508;10.476;2023-03-01T10:53:04;111.93;;;106.55;;
75584;SDS011;64162;53.508;10.476;2023-03-01T10:58:20;87.18;;;82.82;;
75584;SDS011;64162;53.508;10.476;2023-03-01T11:00:52;103.60;;;98.68;;
75584;SDS011;64162;53.508;10.476;2023-03-01T11:03:23;113.35;;;108.10;;
75584;SDS011;64162;53.508;10.476;2023-03-01T11:05:53;117.22;;;111.88;;
75584;SDS011;64162;53.508;10.476;2023-03-01T11:13:50;95.55;;;90.85;;
75584;SDS011;64162;53.508;10.476;2023-03-01T11:16:29;98.50;;;93.88;;
75584;SDS011;64162;53.508;10.476;2023-03-01T11:19:20;116.32;;;110.90;;
75584;SDS011;64162;53.508;10.476;2023-03-01T11:27:17;119.13;;;114.03;;
75584;SDS011;64162;53.508;10.476;2023-03-01T11:32:34;99.00;;;94.65;;
75584;SDS011;64162;53.508;10.476;2023-03-01T11:35:12;135.52;;;129.35;;
75584;SDS011;64162;53.508;10.476;2023-03-01T11:37:58;107.43;;;102.35;;
75584;SDS011;64162;53.508;10.476;2023-03-01T11:40:52;140.02;;;133.98;;
75584;SDS011;64162;53.508;10.476;2023-03-01T11:52:11;107.85;;;102.70;;
75584;SDS011;64162;53.508;10.476;2023-03-01T12:01:15;125.50;;;120.00;;
75584;SDS011;64162;53.508;10.476;2023-03-01T12:19:51;35.08;;;33.05;;
75584;SDS011;64162;53.508;10.476;2023-03-01T12:30:45;27.92;;;26.38;;
75584;SDS011;64162;53.508;10.476;2023-03-01T12:39:16;25.60;;;24.10;;
75584;SDS011;64162;53.508;10.476;2023-03-01T12:44:37;30.27;;;28.55;;
75584;SDS011;64162;53.508;10.476;2023-03-01T12:47:24;30.10;;;28.17;;
75584;SDS011;64162;53.508;10.476;2023-03-01T12:50:13;26.33;;;24.77;;
75584;SDS011;64162;53.508;10.476;2023-03-01T12:52:56;30.05;;;28.23;;
75584;SDS011;64162;53.508;10.476;2023-03-01T12:55:31;40.80;;;38.47;;
75584;SDS011;64162;53.508;10.476;2023-03-01T13:00:44;32.35;;;30.23;;
75584;SDS011;64162;53.508;10.476;2023-03-01T13:03:25;28.02;;;26.02;;
75584;SDS011;64162;53.508;10.476;2023-03-01T13:08:49;27.55;;;25.83;;
75584;SDS011;64162;53.508;10.476;2023-03-01T13:11:26;27.75;;;26.15;;
75584;SDS011;64162;53.508;10.476;2023-03-01T13:14:08;28.83;;;27.02;;
75584;SDS011;64162;53.508;10.476;2023-03-01T13:16:54;31.38;;;29.65;;
75584;SDS011;64162;53.508;10.476;2023-03-01T13:19:22;27.67;;;26.08;;
75584;SDS011;64162;53.508;10.476;2023-03-01T13:21:51;25.30;;;23.70;;
75584;SDS011;64162;53.508;10.476;2023-03-01T13:24:43;27.73;;;25.85;;
75584;SDS011;64162;53.508;10.476;2023-03-01T13:27:11;23.38;;;22.05;;
75584;SDS011;64162;53.508;10.476;2023-03-01T13:29:52;22.52;;;21.13;;
75584;SDS011;64162;53.508;10.476;2023-03-01T13:35:55;24.55;;;23.15;;
75584;SDS011;64162;53.508;10.476;2023-03-01T13:41:14;24.13;;;22.83;;
75584;SDS011;64162;53.508;10.476;2023-03-01T13:43:43;23.17;;;21.83;;
75584;SDS011;64162;53.508;10.476;2023-03-01T13:46:16;24.50;;;23.30;;
75584;SDS011;64162;53.508;10.476;2023-03-01T13:48:47;22.63;;;21.48;;
75584;SDS011;64162;53.508;10.476;2023-03-01T13:51:20;20.50;;;19.40;;
75584;SDS011;64162;53.508;10.476;2023-03-01T13:53:51;23.58;;;22.25;;
75584;SDS011;64162;53.508;10.476;2023-03-01T13:56:25;24.67;;;23.48;;
75584;SDS011;64162;53.508;10.476;2023-03-01T13:58:58;18.17;;;17.27;;
75584;SDS011;64162;53.508;10.476;2023-03-01T14:01:44;21.08;;;20.08;;
75584;SDS011;64162;53.508;10.476;2023-03-01T14:04:23;26.15;;;24.75;;
75584;SDS011;64162;53.508;10.476;2023-03-01T14:07:17;25.77;;;24.60;;
75584;SDS011;64162;53.508;10.476;2023-03-01T14:09:51;29.58;;;28.17;;
75584;SDS011;64162;53.508;10.476;2023-03-01T14:15:12;25.45;;;24.08;;
75584;SDS011;64162;53.508;10.476;2023-03-01T14:17:55;18.40;;;17.40;;
75584;SDS011;64162;53.508;10.476;2023-03-01T14:20:43;21.52;;;20.42;;
75584;SDS011;64162;53.508;10.476;2023-03-01T14:23:18;25.77;;;24.48;;
75584;SDS011;64162;53.508;10.476;2023-03-01T14:25:54;45.88;;;43.78;;
75584;SDS011;64162;53.508;10.476;2023-03-01T14:28:26;32.90;;;31.35;;
75584;SDS011;64162;53.508;10.476;2023-03-01T14:30:55;31.17;;;29.45;;
75584;SDS011;64162;53.508;10.476;2023-03-01T14:33:24;33.75;;;32.05;;
75584;SDS011;64162;53.508;10.476;2023-03-01T14:35:57;27.73;;;26.42;;
75584;SDS011;64162;53.508;10.476;2023-03-01T14:40:57;30.35;;;28.92;;
75584;SDS011;64162;53.508;10.476;2023-03-01T14:43:27;26.70;;;25.33;;
75584;SDS011;64162;53.508;10.476;2023-03-01T14:45:56;29.25;;;27.85;;
75584;SDS011;64162;53.508;10.476;2023-03-01T14:48:23;30.00;;;28.17;;
75584;SDS011;64162;53.508;10.476;2023-03-01T14:50:51;25.33;;;24.02;;
75584;SDS011;64162;53.508;10.476;2023-03-01T14:53:19;26.23;;;24.73;;
75584;SDS011;64162;53.508;10.476;2023-03-01T14:55:50;53.53;;;51.17;;
75584;SDS011;64162;53.508;10.476;2023-03-01T14:58:20;26.88;;;25.48;;
75584;SDS011;64162;53.508;10.476;2023-03-01T15:00:51;19.38;;;18.38;;
75584;SDS011;64162;53.508;10.476;2023-03-01T15:03:42;26.92;;;25.52;;
75584;SDS011;64162;53.508;10.476;2023-03-01T15:06:11;23.63;;;22.27;;
75584;SDS011;64162;53.508;10.476;2023-03-01T15:08:42;23.40;;;22.30;;
75584;SDS011;64162;53.508;10.476;2023-03-01T15:13:39;23.60;;;22.38;;
75584;SDS011;64162;53.508;10.476;2023-03-01T15:16:10;19.33;;;18.17;;
75584;SDS011;64162;53.508;10.476;2023-03-01T15:18:42;21.10;;;20.02;;
75584;SDS011;64162;53.508;10.476;2023-03-01T15:21:21;22.77;;;21.60;;
75584;SDS011;64162;53.508;10.476;2023-03-01T15:23:51;22.23;;;21.17;;
75584;SDS011;64162;53.508;10.476;2023-03-01T15:26:24;18.92;;;17.92;;
75584;SDS011;64162;53.508;10.476;2023-03-01T15:29:00;23.75;;;22.65;;
75584;SDS011;64162;53.508;10.476;2023-03-01T15:31:31;20.55;;;19.60;;
75584;SDS011;64162;53.508;10.476;2023-03-01T15:34:21;17.67;;;16.77;;
75584;SDS011;64162;53.508;10.476;2023-03-01T15:36:53;19.92;;;18.88;;
75584;SDS011;64162;53.508;10.476;2023-03-01T15:39:54;19.83;;;18.83;;
75584;SDS011;64162;53.508;10.476;2023-03-01T15:47:47;21.27;;;20.38;;
75584;SDS011;64162;53.508;10.476;2023-03-01T15:50:26;18.73;;;17.83;;
75584;SDS011;64162;53.508;10.476;2023-03-01T15:52:56;25.25;;;23.98;;
75584;SDS011;64162;53.508;10.476;2023-03-01T15:55:25;24.65;;;23.55;;
75584;SDS011;64162;53.508;10.476;2023-03-01T15:57:57;24.52;;;23.27;;
75584;SDS011;64162;53.508;10.476;2023-03-01T16:00:29;25.35;;;24.15;;
75584;SDS011;64162;53.508;10.476;2023-03-01T16:02:55;25.75;;;24.35;;
75584;SDS011;64162;53.508;10.476;2023-03-01T16:05:23;25.88;;;24.60;;
75584;SDS011;64162;53.508;10.476;2023-03-01T16:07:52;28.35;;;27.10;;
75584;SDS011;64162;53.508;10.476;2023-03-01T16:10:19;20.63;;;19.63;;
75584;SDS011;64162;53.508;10.476;2023-03-01T16:12:46;21.95;;;20.85;;
75584;SDS011;64162;53.508;10.476;2023-03-01T16:15:15;21.13;;;20.15;;
75584;SDS011;64162;53.508;10.476;2023-03-01T16:17:45;24.45;;;23.27;;
75584;SDS011;64162;53.508;10.476;2023-03-01T16:20:13;20.73;;;19.73;;
75584;SDS011;64162;53.508;10.476;2023-03-01T16:22:52;21.98;;;20.98;;
75584;SDS011;64162;53.508;10.476;2023-03-01T16:25:19;21.77;;;20.77;;
75584;SDS011;64162;53.508;10.476;2023-03-01T16:27:47;20.58;;;19.67;;
75584;SDS011;64162;53.508;10.476;2023-03-01T16:30:15;22.02;;;20.85;;
75584;SDS011;64162;53.508;10.476;2023-03-01T16:32:45;20.45;;;19.55;;
75584;SDS011;64162;53.508;10.476;2023-03-01T16:35:14;22.73;;;21.73;;
75584;SDS011;64162;53.508;10.476;2023-03-01T16:37:42;23.40;;;22.30;;
75584;SDS011;64162;53.508;10.476;2023-03-01T16:40:19;20.30;;;19.25;;
75584;SDS011;64162;53.508;10.476;2023-03-01T16:42:48;23.33;;;22.02;;